Time,TemperatureF,DewpointF,PressureIn,WindDirection,WindDirectionDegrees,WindSpeedMPH,WindSpeedGustMPH,Humidity,HourlyPrecipIn,Conditions,Clouds,dailyrainin,SoftwareType,DateUTC
2013-02-05 00:01:00,27.2,24.4,29.92,SSE,167,2.0,9.0,89,0.00,,,0.00,VWS V14.00,2013-02-05 06:01:00,
2013-02-05 00:06:00,27.3,24.5,29.92,SW,218,3.0,7.0,89,0.00,,,0.00,VWS V14.00,2013-02-05 06:06:00,
2013-02-05 00:11:00,27.4,24.6,29.92,SW,228,3.0,7.0,89,0.00,,,0.00,VWS V14.00,2013-02-05 06:11:00,
2013-02-05 00:16:00,27.4,24.6,29.93,SW,226,0.0,7.0,89,0.00,,,0.00,VWS V14.00,2013-02-05 06:16:00,
2013-02-05 00:21:00,27.5,24.7,29.93,WSW,238,2.0,7.0,89,0.00,,,0.00,VWS V14.00,2013-02-05 06:21:00,
2013-02-05 00:26:00,27.5,24.7,29.95,NW,318,0.0,7.0,89,0.00,,,0.00,VWS V14.00,2013-02-05 06:26:00,
2013-02-05 00:31:00,27.6,24.8,29.94,SW,214,0.0,7.0,89,0.00,,,0.00,VWS V14.00,2013-02-05 06:31:00,
2013-02-05 00:36:00,27.6,24.8,29.95,WSW,258,1.0,2.0,89,0.00,,,0.00,VWS V14.00,2013-02-05 06:36:00,
2013-02-05 00:41:00,27.8,25.0,29.95,West,272,0.0,3.0,89,0.00,,,0.00,VWS V14.00,2013-02-05 06:41:00,
2013-02-05 00:46:00,28.0,25.2,29.95,WSW,252,0.0,5.0,89,0.00,,,0.00,VWS V14.00,2013-02-05 06:46:00,
2013-02-05 00:51:00,28.0,25.2,29.94,West,279,0.0,5.0,89,0.00,,,0.00,VWS V14.00,2013-02-05 06:51:00,
2013-02-05 00:56:00,28.0,25.2,29.94,WSW,253,0.0,5.0,89,0.00,,,0.00,VWS V14.00,2013-02-05 06:56:00,
2013-02-05 01:01:00,28.0,25.2,29.93,SSW,207,0.0,5.0,89,0.00,,,0.00,VWS V14.00,2013-02-05 07:01:00,
2013-02-05 01:06:00,28.1,25.3,29.93,West,263,0.0,0.0,89,0.00,,,0.00,VWS V14.00,2013-02-05 07:06:00,
2013-02-05 01:11:00,28.2,25.4,29.93,WSW,254,0.0,4.0,89,0.00,,,0.00,VWS V14.00,2013-02-05 07:11:00,
2013-02-05 01:16:00,28.2,25.4,29.93,WSW,248,0.0,6.0,89,0.00,,,0.00,VWS V14.00,2013-02-05 07:16:00,
2013-02-05 01:21:00,28.1,25.3,29.93,SW,229,0.0,6.0,89,0.00,,,0.00,VWS V14.00,2013-02-05 07:21:00,
2013-02-05 01:26:00,28.2,25.4,29.93,West,260,0.0,6.0,89,0.00,,,0.00,VWS V14.00,2013-02-05 07:26:00,
2013-02-05 01:31:00,28.2,25.4,29.93,WSW,255,3.0,9.0,89,0.00,,,0.00,VWS V14.00,2013-02-05 07:31:00,
2013-02-05 01:36:00,28.2,25.4,29.92,SW,215,2.0,2.0,89,0.00,,,0.00,VWS V14.00,2013-02-05 07:36:00,
2013-02-05 01:41:00,28.2,25.4,29.92,WSW,238,2.0,6.0,89,0.00,,,0.00,VWS V14.00,2013-02-05 07:41:00,
2013-02-05 01:46:00,28.3,25.5,29.92,WSW,257,0.0,6.0,89,0.00,,,0.00,VWS V14.00,2013-02-05 07:46:00,
2013-02-05 01:51:00,28.3,25.2,29.93,WSW,240,0.0,6.0,88,0.00,,,0.00,VWS V14.00,2013-02-05 07:51:00,
2013-02-05 01:56:00,28.3,25.2,29.93,WSW,244,0.0,6.0,88,0.00,,,0.00,VWS V14.00,2013-02-05 07:56:00,
2013-02-05 02:01:00,28.3,25.2,29.93,West,259,0.0,6.0,88,0.00,,,0.00,VWS V14.00,2013-02-05 08:01:00,
2013-02-05 02:06:00,28.3,25.2,29.93,SW,225,0.0,0.0,88,0.00,,,0.00,VWS V14.00,2013-02-05 08:06:00,
2013-02-05 02:11:00,28.3,25.2,29.93,WSW,238,0.0,3.0,88,0.00,,,0.00,VWS V14.00,2013-02-05 08:11:00,
2013-02-05 02:15:00,28.3,25.2,29.93,SSW,209,0.0,3.0,88,0.00,,,0.00,VWS V14.00,2013-02-05 08:15:00,
2013-02-05 02:20:00,28.3,25.2,29.93,SW,215,0.0,3.0,88,0.00,,,0.00,VWS V14.00,2013-02-05 08:20:00,
2013-02-05 02:25:00,28.3,25.2,29.93,SSW,213,2.0,4.0,88,0.00,,,0.00,VWS V14.00,2013-02-05 08:25:00,
2013-02-05 02:30:00,28.2,25.1,29.92,SW,215,0.0,4.0,88,0.00,,,0.00,VWS V14.00,2013-02-05 08:30:00,
2013-02-05 02:35:00,28.2,25.1,29.92,WSW,238,2.0,3.0,88,0.00,,,0.00,VWS V14.00,2013-02-05 08:35:00,
2013-02-05 02:40:00,28.2,25.1,29.92,SW,232,0.0,3.0,88,0.00,,,0.00,VWS V14.00,2013-02-05 08:40:00,
2013-02-05 02:45:00,28.2,25.1,29.92,SW,225,0.0,5.0,88,0.00,,,0.00,VWS V14.00,2013-02-05 08:45:00,
2013-02-05 02:50:00,28.2,25.1,29.91,SW,227,1.0,5.0,88,0.00,,,0.00,VWS V14.00,2013-02-05 08:50:00,
2013-02-05 02:55:00,28.2,25.1,29.91,WSW,249,2.0,5.0,88,0.00,,,0.00,VWS V14.00,2013-02-05 08:55:00,
2013-02-05 03:00:00,28.2,25.1,29.91,SW,236,0.0,6.0,88,0.00,,,0.00,VWS V14.00,2013-02-05 09:00:00,
2013-02-05 03:05:00,28.1,25.0,29.91,SW,227,0.0,5.0,88,0.00,,,0.00,VWS V14.00,2013-02-05 09:05:00,
2013-02-05 03:10:00,28.1,25.0,29.91,SSW,192,0.0,6.0,88,0.00,,,0.00,VWS V14.00,2013-02-05 09:10:00,
2013-02-05 03:15:00,28.0,24.9,29.91,SW,225,1.0,6.0,88,0.00,,,0.00,VWS V14.00,2013-02-05 09:15:00,
2013-02-05 03:20:00,28.0,24.9,29.91,WSW,244,0.0,6.0,88,0.00,,,0.00,VWS V14.00,2013-02-05 09:20:00,
2013-02-05 03:25:00,27.9,24.8,29.91,SW,233,3.0,6.0,88,0.00,,,0.00,VWS V14.00,2013-02-05 09:25:00,
2013-02-05 03:30:00,27.9,24.8,29.91,SW,236,0.0,6.0,88,0.00,,,0.00,VWS V14.00,2013-02-05 09:30:00,
2013-02-05 03:35:00,27.9,24.8,29.91,SW,227,0.0,0.0,88,0.00,,,0.00,VWS V14.00,2013-02-05 09:35:00,
2013-02-05 03:40:00,27.8,24.7,29.91,SW,236,0.0,4.0,88,0.00,,,0.00,VWS V14.00,2013-02-05 09:40:00,
2013-02-05 03:45:00,27.8,24.7,29.90,SW,215,0.0,4.0,88,0.00,,,0.00,VWS V14.00,2013-02-05 09:45:00,
2013-02-05 03:50:00,27.8,24.7,29.91,SW,235,0.0,4.0,88,0.00,,,0.00,VWS V14.00,2013-02-05 09:50:00,
2013-02-05 03:55:00,27.8,24.7,29.91,SW,224,2.0,4.0,88,0.00,,,0.00,VWS V14.00,2013-02-05 09:55:00,
2013-02-05 04:00:00,27.8,24.7,29.91,WSW,237,2.0,4.0,88,0.00,,,0.00,VWS V14.00,2013-02-05 10:00:00,
2013-02-05 04:05:00,27.9,24.8,29.91,WSW,237,0.0,0.0,88,0.00,,,0.00,VWS V14.00,2013-02-05 10:05:00,
2013-02-05 04:10:00,27.9,24.8,29.91,WSW,238,1.0,2.0,88,0.00,,,0.00,VWS V14.00,2013-02-05 10:10:00,
2013-02-05 04:15:00,28.0,24.9,29.91,SW,230,3.0,3.0,88,0.00,,,0.00,VWS V14.00,2013-02-05 10:15:00,
2013-02-05 04:20:00,28.0,24.9,29.91,SW,230,3.0,4.0,88,0.00,,,0.00,VWS V14.00,2013-02-05 10:20:00,
2013-02-05 04:25:00,28.1,25.3,29.90,WSW,246,3.0,6.0,89,0.00,,,0.00,VWS V14.00,2013-02-05 10:25:00,
2013-02-05 04:30:00,28.3,25.5,29.91,WSW,244,3.0,6.0,89,0.00,,,0.00,VWS V14.00,2013-02-05 10:30:00,
2013-02-05 04:35:00,28.4,25.6,29.91,SW,222,2.0,3.0,89,0.00,,,0.00,VWS V14.00,2013-02-05 10:35:00,
2013-02-05 04:40:00,28.6,25.8,29.91,SW,219,2.0,5.0,89,0.00,,,0.00,VWS V14.00,2013-02-05 10:40:00,
2013-02-05 04:45:00,28.8,26.0,29.91,WSW,257,6.0,6.0,89,0.00,,,0.00,VWS V14.00,2013-02-05 10:45:00,
2013-02-05 04:50:00,28.9,26.1,29.92,SW,235,4.0,6.0,89,0.00,,,0.00,VWS V14.00,2013-02-05 10:50:00,
2013-02-05 04:55:00,29.0,26.2,29.92,WNW,294,0.0,6.0,89,0.00,,,0.00,VWS V14.00,2013-02-05 10:55:00,
2013-02-05 05:00:00,29.1,26.0,29.92,WSW,256,0.0,6.0,88,0.00,,,0.00,VWS V14.00,2013-02-05 11:00:00,
2013-02-05 05:05:00,29.4,26.6,29.92,WSW,256,0.0,0.0,89,0.00,,,0.00,VWS V14.00,2013-02-05 11:05:00,
2013-02-05 05:10:00,29.6,26.8,29.91,WSW,256,2.0,3.0,89,0.00,,,0.00,VWS V14.00,2013-02-05 11:10:00,
2013-02-05 05:15:00,29.6,26.8,29.91,West,263,2.0,4.0,89,0.00,,,0.00,VWS V14.00,2013-02-05 11:15:00,
2013-02-05 05:20:00,29.7,26.6,29.92,West,263,2.0,4.0,88,0.00,,,0.00,VWS V14.00,2013-02-05 11:20:00,
2013-02-05 05:25:00,30.0,27.2,29.92,West,279,3.0,4.0,89,0.00,,,0.00,VWS V14.00,2013-02-05 11:25:00,
2013-02-05 05:30:00,30.1,27.3,29.92,West,259,0.0,4.0,89,0.00,,,0.00,VWS V14.00,2013-02-05 11:30:00,
2013-02-05 05:35:00,30.1,27.3,29.92,West,261,0.0,0.0,89,0.00,,,0.00,VWS V14.00,2013-02-05 11:35:00,
2013-02-05 05:40:00,30.1,27.0,29.92,West,264,0.0,0.0,88,0.00,,,0.00,VWS V14.00,2013-02-05 11:40:00,
2013-02-05 05:45:00,30.3,27.5,29.93,West,279,2.0,5.0,89,0.00,,,0.00,VWS V14.00,2013-02-05 11:45:00,
2013-02-05 05:50:00,30.6,27.8,29.93,West,265,2.0,7.0,89,0.00,,,0.00,VWS V14.00,2013-02-05 11:50:00,
2013-02-05 05:55:00,30.4,27.3,29.94,West,260,2.0,7.0,88,0.00,,,0.00,VWS V14.00,2013-02-05 11:55:00,
2013-02-05 06:00:00,30.3,27.2,29.93,West,269,2.0,7.0,88,0.00,,,0.00,VWS V14.00,2013-02-05 12:00:00,
2013-02-05 06:05:00,30.5,27.6,29.93,West,270,0.0,0.0,89,0.00,,,0.00,VWS V14.00,2013-02-05 12:05:00,
2013-02-05 06:10:00,30.8,28.0,29.94,West,269,0.0,0.0,89,0.00,,,0.00,VWS V14.00,2013-02-05 12:10:00,
2013-02-05 06:15:00,30.7,27.9,29.94,West,269,0.0,0.0,89,0.00,,,0.00,VWS V14.00,2013-02-05 12:15:00,
2013-02-05 06:20:00,30.6,27.5,29.94,West,268,0.0,0.0,88,0.00,,,0.00,VWS V14.00,2013-02-05 12:20:00,
2013-02-05 06:25:00,30.6,27.5,29.94,West,265,0.0,3.0,88,0.00,,,0.00,VWS V14.00,2013-02-05 12:25:00,
2013-02-05 06:30:00,30.6,27.5,29.94,West,267,0.0,3.0,88,0.00,,,0.00,VWS V14.00,2013-02-05 12:30:00,
2013-02-05 06:35:00,30.7,27.6,29.94,West,265,0.0,0.0,88,0.00,,,0.00,VWS V14.00,2013-02-05 12:35:00,
2013-02-05 06:40:00,30.7,27.6,29.94,West,267,2.0,3.0,88,0.00,,,0.00,VWS V14.00,2013-02-05 12:40:00,
2013-02-05 06:45:00,30.8,27.7,29.94,West,267,0.0,3.0,88,0.00,,,0.00,VWS V14.00,2013-02-05 12:45:00,
2013-02-05 06:50:00,31.2,28.3,29.94,West,268,0.0,3.0,89,0.00,,,0.00,VWS V14.00,2013-02-05 12:50:00,
2013-02-05 06:55:00,31.4,28.3,29.94,West,277,2.0,5.0,88,0.00,,,0.00,VWS V14.00,2013-02-05 12:55:00,
2013-02-05 07:00:00,31.5,28.4,29.94,West,275,2.0,5.0,88,0.00,,,0.00,VWS V14.00,2013-02-05 13:00:00,
2013-02-05 07:05:00,32.0,29.1,29.94,West,269,2.0,3.0,89,0.00,,,0.00,VWS V14.00,2013-02-05 13:05:00,
2013-02-05 07:10:00,32.2,29.0,29.95,West,265,2.0,4.0,88,0.00,,,0.00,VWS V14.00,2013-02-05 13:10:00,
2013-02-05 07:15:00,32.4,29.0,29.95,WSW,256,3.0,5.0,87,0.00,,,0.00,VWS V14.00,2013-02-05 13:15:00,
2013-02-05 07:20:00,32.7,29.3,29.95,West,269,2.0,5.0,87,0.00,,,0.00,VWS V14.00,2013-02-05 13:20:00,
2013-02-05 07:25:00,32.8,29.1,29.95,West,270,1.0,5.0,86,0.00,,,0.00,VWS V14.00,2013-02-05 13:25:00,
2013-02-05 07:30:00,33.0,29.0,29.95,West,270,1.0,5.0,85,0.00,,,0.00,VWS V14.00,2013-02-05 13:30:00,
2013-02-05 07:35:00,33.2,29.2,29.95,West,274,1.0,2.0,85,0.00,,,0.00,VWS V14.00,2013-02-05 13:35:00,
2013-02-05 07:40:00,33.2,28.9,29.96,West,278,3.0,4.0,84,0.00,,,0.00,VWS V14.00,2013-02-05 13:40:00,
2013-02-05 07:45:00,33.5,29.2,29.96,West,271,2.0,5.0,84,0.00,,,0.00,VWS V14.00,2013-02-05 13:45:00,
2013-02-05 07:50:00,33.6,29.0,29.96,West,279,0.0,5.0,83,0.00,,,0.00,VWS V14.00,2013-02-05 13:50:00,
2013-02-05 07:54:00,33.8,28.9,29.96,West,278,0.0,5.0,82,0.00,,,0.00,VWS V14.00,2013-02-05 13:54:00,
2013-02-05 07:59:00,34.4,30.1,29.97,West,281,2.0,5.0,84,0.00,,,0.00,VWS V14.00,2013-02-05 13:59:00,
2013-02-05 08:04:00,34.4,29.5,29.97,West,275,2.0,2.0,82,0.00,,,0.00,VWS V14.00,2013-02-05 14:04:00,
2013-02-05 08:09:00,34.4,28.9,29.97,West,262,3.0,5.0,80,0.00,,,0.00,VWS V14.00,2013-02-05 14:09:00,
2013-02-05 08:14:00,34.8,29.6,29.97,West,268,3.0,5.0,81,0.00,,,0.00,VWS V14.00,2013-02-05 14:14:00,
2013-02-05 08:19:00,35.0,29.2,29.97,West,269,3.0,5.0,79,0.00,,,0.00,VWS V14.00,2013-02-05 14:19:00,
2013-02-05 08:24:00,35.2,29.4,29.98,West,271,2.0,5.0,79,0.00,,,0.00,VWS V14.00,2013-02-05 14:24:00,
2013-02-05 08:29:00,35.6,29.7,29.98,WNW,284,0.0,5.0,79,0.00,,,0.00,VWS V14.00,2013-02-05 14:29:00,
2013-02-05 08:34:00,35.8,29.3,29.98,West,281,0.0,5.0,77,0.00,,,0.00,VWS V14.00,2013-02-05 14:34:00,
2013-02-05 08:39:00,36.2,29.7,29.99,WNW,286,0.0,4.0,77,0.00,,,0.00,VWS V14.00,2013-02-05 14:39:00,
2013-02-05 08:44:00,37.3,32.3,29.99,WNW,287,0.0,6.0,82,0.00,,,0.00,VWS V14.00,2013-02-05 14:44:00,
2013-02-05 08:49:00,37.4,30.9,29.99,WNW,294,0.0,6.0,77,0.00,,,0.00,VWS V14.00,2013-02-05 14:49:00,
2013-02-05 08:54:00,37.7,30.2,30.00,West,281,5.0,11.0,74,0.00,,,0.00,VWS V14.00,2013-02-05 14:54:00,
2013-02-05 08:59:00,38.0,30.5,30.00,West,268,6.0,11.0,74,0.00,,,0.00,VWS V14.00,2013-02-05 14:59:00,
2013-02-05 09:04:00,38.6,31.4,30.00,NW,315,4.0,11.0,75,0.00,,,0.00,VWS V14.00,2013-02-05 15:04:00,
2013-02-05 09:09:00,39.1,30.5,30.01,West,281,6.0,13.0,71,0.00,,,0.00,VWS V14.00,2013-02-05 15:09:00,
2013-02-05 09:14:00,39.4,30.4,30.01,West,273,7.0,13.0,70,0.00,,,0.00,VWS V14.00,2013-02-05 15:14:00,
2013-02-05 09:19:00,39.7,30.4,30.01,West,281,6.0,14.0,69,0.00,,,0.00,VWS V14.00,2013-02-05 15:19:00,
2013-02-05 09:24:00,40.5,32.5,30.02,WNW,299,4.0,14.0,73,0.00,,,0.00,VWS V14.00,2013-02-05 15:24:00,
2013-02-05 09:29:00,40.8,31.1,30.02,NW,322,3.0,14.0,68,0.00,,,0.00,VWS V14.00,2013-02-05 15:29:00,
2013-02-05 09:34:00,41.0,30.9,30.02,WNW,290,5.0,15.0,67,0.00,,,0.00,VWS V14.00,2013-02-05 15:34:00,
2013-02-05 09:39:00,41.4,31.6,30.02,WNW,301,6.0,13.0,68,0.00,,,0.00,VWS V14.00,2013-02-05 15:39:00,
2013-02-05 09:44:00,42.2,33.1,30.02,WNW,298,3.0,13.0,70,0.00,,,0.00,VWS V14.00,2013-02-05 15:44:00,
2013-02-05 09:49:00,42.4,31.5,30.02,WNW,299,7.0,15.0,65,0.00,,,0.00,VWS V14.00,2013-02-05 15:49:00,
2013-02-05 09:54:00,42.5,31.6,30.02,WNW,291,7.0,15.0,65,0.00,,,0.00,VWS V14.00,2013-02-05 15:54:00,
2013-02-05 09:59:00,42.6,31.7,30.02,WSW,254,5.0,15.0,65,0.00,,,0.00,VWS V14.00,2013-02-05 15:59:00,
2013-02-05 10:04:00,43.0,32.8,30.02,NW,304,11.0,15.0,67,0.00,,,0.00,VWS V14.00,2013-02-05 16:04:00,
2013-02-05 10:09:00,43.2,32.2,30.03,WNW,302,9.0,12.0,65,0.00,,,0.00,VWS V14.00,2013-02-05 16:09:00,
2013-02-05 10:14:00,43.4,32.4,30.03,WNW,296,7.0,15.0,65,0.00,,,0.00,VWS V14.00,2013-02-05 16:14:00,
2013-02-05 10:19:00,43.6,32.6,30.03,NW,325,10.0,16.0,65,0.00,,,0.00,VWS V14.00,2013-02-05 16:19:00,
2013-02-05 10:24:00,44.3,33.7,30.04,WNW,283,5.0,16.0,66,0.00,,,0.00,VWS V14.00,2013-02-05 16:24:00,
2013-02-05 10:29:00,45.2,33.8,30.04,WNW,300,10.0,16.0,64,0.00,,,0.00,VWS V14.00,2013-02-05 16:29:00,
2013-02-05 10:34:00,45.5,32.8,30.05,WNW,300,5.0,16.0,61,0.00,,,0.00,VWS V14.00,2013-02-05 16:34:00,
2013-02-05 10:39:00,45.6,32.9,30.05,WNW,286,4.0,14.0,61,0.00,,,0.00,VWS V14.00,2013-02-05 16:39:00,
2013-02-05 10:44:00,45.8,33.1,30.05,NW,309,5.0,14.0,61,0.00,,,0.00,VWS V14.00,2013-02-05 16:44:00,
2013-02-05 10:49:00,46.0,32.9,30.05,WNW,288,5.0,15.0,60,0.00,,,0.00,VWS V14.00,2013-02-05 16:49:00,
2013-02-05 10:54:00,46.5,34.6,30.05,West,279,0.0,15.0,63,0.00,,,0.00,VWS V14.00,2013-02-05 16:54:00,
2013-02-05 10:59:00,47.0,33.8,30.05,NNW,346,9.0,15.0,60,0.00,,,0.00,VWS V14.00,2013-02-05 16:59:00,
2013-02-05 11:04:00,47.1,33.5,30.05,WNW,298,2.0,15.0,59,0.00,,,0.00,VWS V14.00,2013-02-05 17:04:00,
2013-02-05 11:09:00,47.4,33.8,30.06,WNW,286,2.0,11.0,59,0.00,,,0.00,VWS V14.00,2013-02-05 17:09:00,
2013-02-05 11:14:00,47.3,33.3,30.06,NNW,327,5.0,13.0,58,0.00,,,0.00,VWS V14.00,2013-02-05 17:14:00,
2013-02-05 11:19:00,47.2,33.2,30.06,NW,326,6.0,18.0,58,0.00,,,0.00,VWS V14.00,2013-02-05 17:19:00,
2013-02-05 11:24:00,47.4,34.6,30.06,WNW,294,3.0,18.0,61,0.00,,,0.00,VWS V14.00,2013-02-05 17:24:00,
2013-02-05 11:29:00,48.4,34.8,30.07,NW,314,1.0,18.0,59,0.00,,,0.00,VWS V14.00,2013-02-05 17:29:00,
2013-02-05 11:34:00,48.8,33.4,30.06,NW,313,5.0,18.0,55,0.00,,,0.00,VWS V14.00,2013-02-05 17:34:00,
2013-02-05 11:39:00,48.7,32.8,30.06,NW,325,3.0,19.0,54,0.00,,,0.00,VWS V14.00,2013-02-05 17:39:00,
2013-02-05 11:44:00,48.8,32.4,30.06,North,360,9.0,19.0,53,0.00,,,0.00,VWS V14.00,2013-02-05 17:44:00,
2013-02-05 11:49:00,48.8,32.4,30.06,NW,306,2.0,19.0,53,0.00,,,0.00,VWS V14.00,2013-02-05 17:49:00,
2013-02-05 11:54:00,49.2,32.8,30.06,North,5,1.0,19.0,53,0.00,,,0.00,VWS V14.00,2013-02-05 17:54:00,
2013-02-05 11:59:00,49.7,33.8,30.06,NW,319,3.0,19.0,54,0.00,,,0.00,VWS V14.00,2013-02-05 17:59:00,
2013-02-05 12:04:00,50.1,32.2,30.06,NW,307,10.0,19.0,50,0.00,,,0.00,VWS V14.00,2013-02-05 18:04:00,
2013-02-05 12:09:00,49.9,32.0,30.06,WNW,294,9.0,14.0,50,0.00,,,0.00,VWS V14.00,2013-02-05 18:09:00,
2013-02-05 12:14:00,49.9,32.0,30.06,North,5,4.0,14.0,50,0.00,,,0.00,VWS V14.00,2013-02-05 18:14:00,
2013-02-05 12:19:00,49.8,30.4,30.06,WNW,289,9.0,15.0,47,0.00,,,0.00,VWS V14.00,2013-02-05 18:19:00,
2013-02-05 12:24:00,49.7,30.8,30.06,West,261,10.0,15.0,48,0.00,,,0.00,VWS V14.00,2013-02-05 18:24:00,
2013-02-05 12:29:00,49.6,30.7,30.06,WNW,302,6.0,15.0,48,0.00,,,0.00,VWS V14.00,2013-02-05 18:29:00,
2013-02-05 12:34:00,50.1,32.2,30.05,NW,309,4.0,15.0,50,0.00,,,0.00,VWS V14.00,2013-02-05 18:34:00,
2013-02-05 12:39:00,50.0,30.0,30.06,WNW,300,6.0,17.0,46,0.00,,,0.00,VWS V14.00,2013-02-05 18:39:00,
2013-02-05 12:44:00,50.0,29.5,30.05,NW,307,3.0,18.0,45,0.00,,,0.00,VWS V14.00,2013-02-05 18:44:00,
2013-02-05 12:49:00,50.1,29.6,30.06,NNW,341,15.0,18.0,45,0.00,,,0.00,VWS V14.00,2013-02-05 18:49:00,
2013-02-05 12:54:00,50.1,30.7,30.06,North,349,6.0,18.0,47,0.00,,,0.00,VWS V14.00,2013-02-05 18:54:00,
2013-02-05 12:59:00,50.2,30.8,30.06,NW,311,10.0,18.0,47,0.00,,,0.00,VWS V14.00,2013-02-05 18:59:00,
2013-02-05 13:04:00,50.3,32.4,30.05,NW,312,6.0,18.0,50,0.00,,,0.00,VWS V14.00,2013-02-05 19:04:00,
2013-02-05 13:09:00,50.8,30.8,30.06,WNW,296,3.0,11.0,46,0.00,,,0.00,VWS V14.00,2013-02-05 19:09:00,
2013-02-05 13:14:00,50.9,29.8,30.06,WNW,299,4.0,19.0,44,0.00,,,0.00,VWS V14.00,2013-02-05 19:14:00,
2013-02-05 13:19:00,50.8,29.1,30.06,WNW,292,2.0,19.0,43,0.00,,,0.00,VWS V14.00,2013-02-05 19:19:00,
2013-02-05 13:24:00,51.0,29.9,30.06,WNW,296,7.0,19.0,44,0.00,,,0.00,VWS V14.00,2013-02-05 19:24:00,
2013-02-05 13:29:00,51.0,29.9,30.05,WNW,295,6.0,19.0,44,0.00,,,0.00,VWS V14.00,2013-02-05 19:29:00,
2013-02-05 13:34:00,51.1,30.5,30.05,WNW,294,4.0,19.0,45,0.00,,,0.00,VWS V14.00,2013-02-05 19:34:00,
2013-02-05 13:39:00,51.4,30.2,30.05,WNW,302,7.0,11.0,44,0.00,,,0.00,VWS V14.00,2013-02-05 19:39:00,
2013-02-05 13:44:00,51.7,31.6,30.06,NW,319,6.0,16.0,46,0.00,,,0.00,VWS V14.00,2013-02-05 19:44:00,
2013-02-05 13:49:00,52.1,30.3,30.06,NNW,334,5.0,16.0,43,0.00,,,0.00,VWS V14.00,2013-02-05 19:49:00,
2013-02-05 13:54:00,52.1,30.3,30.05,NW,304,6.0,16.0,43,0.00,,,0.00,VWS V14.00,2013-02-05 19:54:00,
2013-02-05 13:59:00,52.1,30.3,30.05,NNW,329,0.0,16.0,43,0.00,,,0.00,VWS V14.00,2013-02-05 19:59:00,
2013-02-05 14:04:00,52.4,28.8,30.05,WNW,296,13.0,16.0,40,0.00,,,0.00,VWS V14.00,2013-02-05 20:04:00,
2013-02-05 14:09:00,52.4,29.4,30.05,West,268,7.0,10.0,41,0.00,,,0.00,VWS V14.00,2013-02-05 20:09:00,
2013-02-05 14:14:00,52.3,29.3,30.05,NW,308,7.0,14.0,41,0.00,,,0.00,VWS V14.00,2013-02-05 20:14:00,
2013-02-05 14:19:00,52.2,28.6,30.05,NNW,338,4.0,14.0,40,0.00,,,0.00,VWS V14.00,2013-02-05 20:19:00,
2013-02-05 14:24:00,52.2,29.2,30.05,NW,311,3.0,14.0,41,0.00,,,0.00,VWS V14.00,2013-02-05 20:24:00,
2013-02-05 14:29:00,52.3,31.0,30.05,WNW,299,5.0,14.0,44,0.00,,,0.00,VWS V14.00,2013-02-05 20:29:00,
2013-02-05 14:34:00,53.0,30.0,30.04,West,280,11.0,14.0,41,0.00,,,0.00,VWS V14.00,2013-02-05 20:34:00,
2013-02-05 14:39:00,52.7,28.5,30.04,NW,310,7.0,20.0,39,0.00,,,0.00,VWS V14.00,2013-02-05 20:39:00,
2013-02-05 14:44:00,52.2,28.6,30.04,NNW,338,4.0,20.0,40,0.00,,,0.00,VWS V14.00,2013-02-05 20:44:00,
2013-02-05 14:49:00,52.1,28.5,30.04,NW,323,10.0,20.0,40,0.00,,,0.00,VWS V14.00,2013-02-05 20:49:00,
2013-02-05 14:54:00,52.1,27.9,30.05,NW,323,4.0,20.0,39,0.00,,,0.00,VWS V14.00,2013-02-05 20:54:00,
2013-02-05 14:59:00,51.9,27.7,30.05,WNW,288,3.0,20.0,39,0.00,,,0.00,VWS V14.00,2013-02-05 20:59:00,
2013-02-05 15:04:00,51.9,28.4,30.05,West,276,9.0,20.0,40,0.00,,,0.00,VWS V14.00,2013-02-05 21:04:00,
2013-02-05 15:09:00,51.8,31.1,30.05,WNW,298,2.0,19.0,45,0.00,,,0.00,VWS V14.00,2013-02-05 21:09:00,
2013-02-05 15:14:00,52.1,28.5,30.05,WNW,292,4.0,19.0,40,0.00,,,0.00,VWS V14.00,2013-02-05 21:14:00,
2013-02-05 15:19:00,52.2,29.2,30.05,NW,310,0.0,19.0,41,0.00,,,0.00,VWS V14.00,2013-02-05 21:19:00,
2013-02-05 15:24:00,52.5,28.3,30.05,NW,315,3.0,19.0,39,0.00,,,0.00,VWS V14.00,2013-02-05 21:24:00,
2013-02-05 15:29:00,52.5,28.9,30.04,NW,323,0.0,19.0,40,0.00,,,0.00,VWS V14.00,2013-02-05 21:29:00,
2013-02-05 15:33:00,52.7,28.5,30.04,NNW,340,2.0,19.0,39,0.00,,,0.00,VWS V14.00,2013-02-05 21:33:00,
2013-02-05 15:38:00,52.8,29.2,30.05,NW,325,6.0,10.0,40,0.00,,,0.00,VWS V14.00,2013-02-05 21:38:00,
2013-02-05 15:43:00,52.8,28.5,30.05,WNW,286,6.0,11.0,39,0.00,,,0.00,VWS V14.00,2013-02-05 21:43:00,
2013-02-05 15:48:00,52.9,32.7,30.05,West,280,0.0,11.0,46,0.00,,,0.00,VWS V14.00,2013-02-05 21:48:00,
2013-02-05 15:53:00,53.1,29.4,30.05,NW,309,1.0,11.0,40,0.00,,,0.00,VWS V14.00,2013-02-05 21:53:00,
2013-02-05 15:58:00,53.0,28.7,30.05,NW,306,2.0,11.0,39,0.00,,,0.00,VWS V14.00,2013-02-05 21:58:00,
2013-02-05 16:03:00,52.7,28.5,30.05,WNW,300,0.0,11.0,39,0.00,,,0.00,VWS V14.00,2013-02-05 22:03:00,
2013-02-05 16:08:00,52.4,28.2,30.05,NNW,338,0.0,9.0,39,0.00,,,0.00,VWS V14.00,2013-02-05 22:08:00,
2013-02-05 16:13:00,52.3,28.7,30.04,NW,320,0.0,9.0,40,0.00,,,0.00,VWS V14.00,2013-02-05 22:13:00,
2013-02-05 16:18:00,52.1,28.5,30.04,NNW,341,0.0,9.0,40,0.00,,,0.00,VWS V14.00,2013-02-05 22:18:00,
2013-02-05 16:23:00,52.1,28.5,30.04,NW,321,0.0,9.0,40,0.00,,,0.00,VWS V14.00,2013-02-05 22:23:00,
2013-02-05 16:28:00,52.4,33.8,30.04,NNW,336,0.0,9.0,49,0.00,,,0.00,VWS V14.00,2013-02-05 22:28:00,
2013-02-05 16:33:00,52.7,29.7,30.04,NW,314,0.0,9.0,41,0.00,,,0.00,VWS V14.00,2013-02-05 22:33:00,
2013-02-05 16:38:00,52.5,28.3,30.04,NW,304,5.0,7.0,39,0.00,,,0.00,VWS V14.00,2013-02-05 22:38:00,
2013-02-05 16:43:00,52.2,28.6,30.04,WNW,299,0.0,7.0,40,0.00,,,0.00,VWS V14.00,2013-02-05 22:43:00,
2013-02-05 16:48:00,51.9,28.4,30.04,NW,304,0.0,7.0,40,0.00,,,0.00,VWS V14.00,2013-02-05 22:48:00,
2013-02-05 16:53:00,51.7,28.8,30.04,NW,307,0.0,7.0,41,0.00,,,0.00,VWS V14.00,2013-02-05 22:53:00,
2013-02-05 16:58:00,51.5,28.6,30.04,NW,309,0.0,7.0,41,0.00,,,0.00,VWS V14.00,2013-02-05 22:58:00,
2013-02-05 17:03:00,51.4,28.5,30.04,NW,320,0.0,7.0,41,0.00,,,0.00,VWS V14.00,2013-02-05 23:03:00,
2013-02-05 17:08:00,51.3,30.7,30.04,NW,320,0.0,0.0,45,0.00,,,0.00,VWS V14.00,2013-02-05 23:08:00,
2013-02-05 17:13:00,51.3,29.6,30.04,NW,319,0.0,1.0,43,0.00,,,0.00,VWS V14.00,2013-02-05 23:13:00,
2013-02-05 17:18:00,51.2,28.9,30.04,NW,317,0.0,3.0,42,0.00,,,0.00,VWS V14.00,2013-02-05 23:18:00,
2013-02-05 17:23:00,50.9,28.6,30.04,NW,317,0.0,3.0,42,0.00,,,0.00,VWS V14.00,2013-02-05 23:23:00,
2013-02-05 17:28:00,50.7,28.5,30.04,NW,317,0.0,3.0,42,0.00,,,0.00,VWS V14.00,2013-02-05 23:28:00,
2013-02-05 17:33:00,50.6,28.4,30.05,NW,317,0.0,3.0,42,0.00,,,0.00,VWS V14.00,2013-02-05 23:33:00,
2013-02-05 17:38:00,50.4,28.2,30.05,NW,317,0.0,0.0,42,0.00,,,0.00,VWS V14.00,2013-02-05 23:38:00,
2013-02-05 17:43:00,50.1,28.5,30.05,NW,317,0.0,0.0,43,0.00,,,0.00,VWS V14.00,2013-02-05 23:43:00,
2013-02-05 17:48:00,49.9,28.3,30.05,NW,317,0.0,0.0,43,0.00,,,0.00,VWS V14.00,2013-02-05 23:48:00,
2013-02-05 17:53:00,49.5,28.0,30.05,NW,317,0.0,0.0,43,0.00,,,0.00,VWS V14.00,2013-02-05 23:53:00,
2013-02-05 17:58:00,49.2,27.7,30.05,NW,317,0.0,0.0,43,0.00,,,0.00,VWS V14.00,2013-02-05 23:58:00,
2013-02-05 18:03:00,48.9,28.0,30.05,NW,317,0.0,0.0,44,0.00,,,0.00,VWS V14.00,2013-02-06 00:03:00,
2013-02-05 18:08:00,48.5,28.1,30.05,NW,317,0.0,0.0,45,0.00,,,0.00,VWS V14.00,2013-02-06 00:08:00,
2013-02-05 18:13:00,47.9,27.6,30.05,NW,317,0.0,0.0,45,0.00,,,0.00,VWS V14.00,2013-02-06 00:13:00,
2013-02-05 18:18:00,47.5,27.2,30.05,NW,317,0.0,0.0,45,0.00,,,0.00,VWS V14.00,2013-02-06 00:18:00,
2013-02-05 18:23:00,47.1,27.4,30.05,NW,317,0.0,0.0,46,0.00,,,0.00,VWS V14.00,2013-02-06 00:23:00,
2013-02-05 18:28:00,46.7,27.0,30.05,NW,317,0.0,0.0,46,0.00,,,0.00,VWS V14.00,2013-02-06 00:28:00,
2013-02-05 18:33:00,46.3,27.2,30.05,NW,317,0.0,0.0,47,0.00,,,0.00,VWS V14.00,2013-02-06 00:33:00,
2013-02-05 18:38:00,45.9,27.3,30.06,NW,317,0.0,0.0,48,0.00,,,0.00,VWS V14.00,2013-02-06 00:38:00,
2013-02-05 18:43:00,45.4,27.4,30.06,NW,317,0.0,0.0,49,0.00,,,0.00,VWS V14.00,2013-02-06 00:43:00,
2013-02-05 18:48:00,45.0,27.5,30.06,NW,317,0.0,0.0,50,0.00,,,0.00,VWS V14.00,2013-02-06 00:48:00,
2013-02-05 18:53:00,44.5,27.0,30.06,NW,317,0.0,0.0,50,0.00,,,0.00,VWS V14.00,2013-02-06 00:53:00,
2013-02-05 18:58:00,44.0,27.0,30.06,NW,317,0.0,0.0,51,0.00,,,0.00,VWS V14.00,2013-02-06 00:58:00,
2013-02-05 19:03:00,43.5,26.6,30.06,NW,317,0.0,0.0,51,0.00,,,0.00,VWS V14.00,2013-02-06 01:03:00,
2013-02-05 19:08:00,43.0,26.6,30.06,NW,317,0.0,0.0,52,0.00,,,0.00,VWS V14.00,2013-02-06 01:08:00,
2013-02-05 19:13:00,42.6,26.7,30.06,NW,317,0.0,0.0,53,0.00,,,0.00,VWS V14.00,2013-02-06 01:13:00,
2013-02-05 19:18:00,42.2,26.8,30.06,NW,317,0.0,0.0,54,0.00,,,0.00,VWS V14.00,2013-02-06 01:18:00,
2013-02-05 19:23:00,41.8,26.8,30.06,NW,317,0.0,0.0,55,0.00,,,0.00,VWS V14.00,2013-02-06 01:23:00,
2013-02-05 19:28:00,41.4,26.5,30.06,NW,317,0.0,0.0,55,0.00,,,0.00,VWS V14.00,2013-02-06 01:28:00,
2013-02-05 19:33:00,41.0,26.1,30.07,NW,317,0.0,0.0,55,0.00,,,0.00,VWS V14.00,2013-02-06 01:33:00,
2013-02-05 19:38:00,40.7,26.2,30.07,NW,317,0.0,0.0,56,0.00,,,0.00,VWS V14.00,2013-02-06 01:38:00,
2013-02-05 19:43:00,40.4,26.4,30.07,NW,317,0.0,0.0,57,0.00,,,0.00,VWS V14.00,2013-02-06 01:43:00,
2013-02-05 19:48:00,40.1,26.5,30.07,NW,317,0.0,0.0,58,0.00,,,0.00,VWS V14.00,2013-02-06 01:48:00,
2013-02-05 19:53:00,39.9,26.3,30.07,NW,317,0.0,0.0,58,0.00,,,0.00,VWS V14.00,2013-02-06 01:53:00,
2013-02-05 19:58:00,39.8,26.7,30.07,NW,317,0.0,0.0,59,0.00,,,0.00,VWS V14.00,2013-02-06 01:58:00,
2013-02-05 20:03:00,39.7,26.6,30.07,NW,317,0.0,0.0,59,0.00,,,0.00,VWS V14.00,2013-02-06 02:03:00,
2013-02-05 20:08:00,39.8,26.7,30.07,NW,317,0.0,0.0,59,0.00,,,0.00,VWS V14.00,2013-02-06 02:08:00,
2013-02-05 20:13:00,39.7,26.6,30.07,NW,317,0.0,0.0,59,0.00,,,0.00,VWS V14.00,2013-02-06 02:13:00,
2013-02-05 20:18:00,39.5,26.8,30.07,NW,321,1.0,1.0,60,0.00,,,0.00,VWS V14.00,2013-02-06 02:18:00,
2013-02-05 20:23:00,39.2,26.1,30.07,NE,38,0.0,4.0,59,0.00,,,0.00,VWS V14.00,2013-02-06 02:23:00,
2013-02-05 20:28:00,39.3,26.2,30.07,NE,38,1.0,4.0,59,0.00,,,0.00,VWS V14.00,2013-02-06 02:28:00,
2013-02-05 20:33:00,39.4,26.3,30.07,NE,37,0.0,4.0,59,0.00,,,0.00,VWS V14.00,2013-02-06 02:33:00,
2013-02-05 20:38:00,39.4,26.3,30.07,NE,37,0.0,0.0,59,0.00,,,0.00,VWS V14.00,2013-02-06 02:38:00,
2013-02-05 20:43:00,39.3,26.2,30.07,NE,37,0.0,0.0,59,0.00,,,0.00,VWS V14.00,2013-02-06 02:43:00,
2013-02-05 20:48:00,39.2,26.1,30.07,NE,37,0.0,0.0,59,0.00,,,0.00,VWS V14.00,2013-02-06 02:48:00,
2013-02-05 20:53:00,38.9,25.8,30.07,NE,37,0.0,0.0,59,0.00,,,0.00,VWS V14.00,2013-02-06 02:53:00,
2013-02-05 20:58:00,38.8,25.7,30.07,NE,37,0.0,0.0,59,0.00,,,0.00,VWS V14.00,2013-02-06 02:58:00,
2013-02-05 21:03:00,38.7,25.6,30.07,NE,37,0.0,2.0,59,0.00,,,0.00,VWS V14.00,2013-02-06 03:03:00,
2013-02-05 21:08:00,38.5,25.4,30.07,NE,37,0.0,0.0,59,0.00,,,0.00,VWS V14.00,2013-02-06 03:08:00,
2013-02-05 21:13:00,38.3,25.2,30.07,NE,37,0.0,0.0,59,0.00,,,0.00,VWS V14.00,2013-02-06 03:13:00,
2013-02-05 21:18:00,38.1,25.5,30.06,NE,45,0.0,2.0,60,0.00,,,0.00,VWS V14.00,2013-02-06 03:18:00,
2013-02-05 21:23:00,37.9,25.3,30.07,ENE,65,0.0,4.0,60,0.00,,,0.00,VWS V14.00,2013-02-06 03:23:00,
2013-02-05 21:27:00,37.8,25.2,30.07,ENE,69,0.0,4.0,60,0.00,,,0.00,VWS V14.00,2013-02-06 03:27:00,
2013-02-05 21:32:00,37.7,25.1,30.07,East,84,3.0,4.0,60,0.00,,,0.00,VWS V14.00,2013-02-06 03:32:00,
2013-02-05 21:37:00,37.4,25.2,30.07,East,86,3.0,4.0,61,0.00,,,0.00,VWS V14.00,2013-02-06 03:37:00,
2013-02-05 21:42:00,37.3,25.5,30.07,East,101,0.0,4.0,62,0.00,,,0.00,VWS V14.00,2013-02-06 03:42:00,
2013-02-05 21:47:00,37.3,25.9,30.08,East,101,0.0,4.0,63,0.00,,,0.00,VWS V14.00,2013-02-06 03:47:00,
2013-02-05 21:52:00,37.3,25.9,30.08,East,101,0.0,4.0,63,0.00,,,0.00,VWS V14.00,2013-02-06 03:52:00,
2013-02-05 21:57:00,37.4,26.4,30.08,East,101,0.0,4.0,64,0.00,,,0.00,VWS V14.00,2013-02-06 03:57:00,
2013-02-05 22:02:00,37.4,26.4,30.08,ESE,103,0.0,4.0,64,0.00,,,0.00,VWS V14.00,2013-02-06 04:02:00,
2013-02-05 22:07:00,37.4,26.4,30.08,ESE,108,4.0,5.0,64,0.00,,,0.00,VWS V14.00,2013-02-06 04:07:00,
2013-02-05 22:12:00,37.4,26.7,30.08,SE,136,3.0,5.0,65,0.00,,,0.00,VWS V14.00,2013-02-06 04:12:00,
2013-02-05 22:17:00,37.4,26.7,30.08,SSE,148,1.0,5.0,65,0.00,,,0.00,VWS V14.00,2013-02-06 04:17:00,
2013-02-05 22:22:00,37.5,26.8,30.08,ESE,121,1.0,5.0,65,0.00,,,0.00,VWS V14.00,2013-02-06 04:22:00,
2013-02-05 22:27:00,37.4,26.7,30.08,ESE,121,0.0,5.0,65,0.00,,,0.00,VWS V14.00,2013-02-06 04:27:00,
2013-02-05 22:32:00,37.3,27.0,30.08,ESE,113,1.0,5.0,66,0.00,,,0.00,VWS V14.00,2013-02-06 04:32:00,
2013-02-05 22:37:00,37.3,27.0,30.08,SE,126,0.0,2.0,66,0.00,,,0.00,VWS V14.00,2013-02-06 04:37:00,
2013-02-05 22:42:00,37.2,26.9,30.08,SE,138,1.0,4.0,66,0.00,,,0.00,VWS V14.00,2013-02-06 04:42:00,
2013-02-05 22:47:00,37.3,27.4,30.08,SE,136,2.0,4.0,67,0.00,,,0.00,VWS V14.00,2013-02-06 04:47:00,
2013-02-05 22:52:00,37.4,27.5,30.08,SE,134,3.0,5.0,67,0.00,,,0.00,VWS V14.00,2013-02-06 04:52:00,
2013-02-05 22:57:00,37.4,27.5,30.08,SSE,148,2.0,5.0,67,0.00,,,0.00,VWS V14.00,2013-02-06 04:57:00,
2013-02-05 23:00:00,37.5,27.5,30.08,SSE,153,3.0,5.0,67,0.00,,,0.00,VWS V14.00,2013-02-06 05:00:00,
2013-02-05 23:05:00,37.6,27.6,30.08,SE,138,2.0,4.0,67,0.00,,,0.00,VWS V14.00,2013-02-06 05:05:00,
2013-02-05 23:10:00,37.7,27.4,30.08,SE,134,3.0,4.0,66,0.00,,,0.00,VWS V14.00,2013-02-06 05:10:00,
2013-02-05 23:15:00,37.8,27.5,30.08,SE,129,0.0,4.0,66,0.00,,,0.00,VWS V14.00,2013-02-06 05:15:00,
2013-02-05 23:20:00,37.8,27.5,30.08,SE,130,0.0,4.0,66,0.00,,,0.00,VWS V14.00,2013-02-06 05:20:00,
2013-02-05 23:25:00,37.8,27.5,30.08,SE,128,0.0,4.0,66,0.00,,,0.00,VWS V14.00,2013-02-06 05:25:00,
2013-02-05 23:30:00,37.7,27.4,30.08,SE,125,0.0,4.0,66,0.00,,,0.00,VWS V14.00,2013-02-06 05:30:00,
2013-02-05 23:35:00,37.7,27.4,30.08,SE,132,0.0,0.0,66,0.00,,,0.00,VWS V14.00,2013-02-06 05:35:00,
2013-02-05 23:40:00,37.7,27.4,30.08,SE,137,0.0,3.0,66,0.00,,,0.00,VWS V14.00,2013-02-06 05:40:00,
2013-02-05 23:45:00,37.7,27.8,30.08,SE,138,0.0,3.0,67,0.00,,,0.00,VWS V14.00,2013-02-06 05:45:00,
2013-02-05 23:50:00,37.6,27.6,30.08,SE,142,0.0,3.0,67,0.00,,,0.00,VWS V14.00,2013-02-06 05:50:00,
2013-02-05 23:55:00,37.4,27.5,30.08,SE,142,0.0,3.0,67,0.00,,,0.00,VWS V14.00,2013-02-06 05:55:00,